Time;durP1;ratioP1;P1;durP2;ratioP2;P2;SDS_P1;SDS_P2;PMS_P1;PMS_P2;Temp;Humidity;BMP_temperature;BMP_pressure;BME280_temperature;BME280_humidity;BME280_pressure;Samples;Min_cycle;Max_cycle;Signal;HPM_P1;HPM_P2
2022/01/23 00:00:19;;;;;;;57.42;38.20;;;6.20;99.90;;;;;;5082098;28;20129;-80
2022/01/23 00:02:46;;;;;;;57.40;37.78;;;6.20;99.90;;;;;;5094745;28;20027;-80
2022/01/23 00:05:13;;;;;;;51.75;36.13;;;6.20;99.90;;;;;;5052802;28;20021;-80
2022/01/23 00:07:40;;;;;;;54.00;36.63;;;6.10;99.90;;;;;;5077990;28;20485;-80
2022/01/23 00:10:09;;;;;;;53.80;36.85;;;6.10;99.90;;;;;;5079958;28;20032;-81
2022/01/23 00:12:41;;;;;;;56.83;37.10;;;6.20;99.90;;;;;;5055552;28;20040;-80
2022/01/23 00:17:51;;;;;;;49.35;35.17;;;6.20;99.90;;;;;;5071850;28;20035;-80
2022/01/23 00:20:17;;;;;;;47.97;34.55;;;6.20;99.90;;;;;;5071084;28;20028;-80
2022/01/23 00:22:50;;;;;;;54.80;37.58;;;6.20;99.90;;;;;;5073850;28;20377;-80
2022/01/23 00:30:46;;;;;;;51.00;36.97;;;6.20;99.90;;;;;;5070896;28;20124;-80
2022/01/23 00:33:13;;;;;;;57.97;38.58;;;6.20;99.90;;;;;;5063356;28;20028;-80
2022/01/23 00:35:41;;;;;;;55.97;36.53;;;6.20;99.90;;;;;;5076902;28;20047;-80
2022/01/23 00:38:08;;;;;;;51.65;35.58;;;6.20;99.90;;;;;;5069908;28;20033;-80
2022/01/23 00:40:36;;;;;;;52.75;36.28;;;6.20;99.90;;;;;;5073916;28;20078;-80
2022/01/23 00:43:07;;;;;;;49.33;35.05;;;6.10;99.90;;;;;;5087987;28;20028;-80
2022/01/23 00:45:33;;;;;;;55.33;37.70;;;6.20;99.90;;;;;;5068578;28;20767;-80
2022/01/23 00:48:06;;;;;;;59.15;37.67;;;6.20;99.90;;;;;;5086566;28;20028;-80
2022/01/23 00:50:50;;;;;;;54.45;36.88;;;6.20;99.90;;;;;;5049878;28;20043;-81
2022/01/23 00:53:16;;;;;;;51.90;36.67;;;6.20;99.90;;;;;;5067262;28;20124;-81
2022/01/23 00:55:44;;;;;;;57.40;37.08;;;6.20;99.90;;;;;;5074808;28;20111;-81
2022/01/23 00:58:10;;;;;;;62.40;38.67;;;6.10;99.90;;;;;;5060763;28;20028;-81
2022/01/23 01:00:37;;;;;;;57.38;36.75;;;6.20;99.90;;;;;;5060582;28;20020;-80
2022/01/23 01:03:03;;;;;;;51.67;35.33;;;6.20;99.90;;;;;;5065524;28;21470;-81
2022/01/23 01:05:30;;;;;;;52.05;34.40;;;6.20;99.90;;;;;;5067356;28;20024;-80
2022/01/23 01:07:57;;;;;;;52.25;35.30;;;6.20;99.90;;;;;;5073850;28;20036;-80
2022/01/23 01:10:28;;;;;;;49.00;34.88;;;6.20;99.90;;;;;;5047598;28;20037;-80
2022/01/23 01:12:59;;;;;;;54.65;35.53;;;6.20;99.90;;;;;;5065883;28;20497;-81
2022/01/23 01:15:56;;;;;;;48.47;33.80;;;6.30;99.90;;;;;;5051439;28;20041;-80
2022/01/23 01:32:07;;;;;;;46.42;32.42;;;6.30;99.90;;;;;;5077555;28;20075;-79
2022/01/23 01:34:40;;;;;;;44.58;32.92;;;6.40;99.90;;;;;;5073177;28;20016;-78
2022/01/23 01:37:08;;;;;;;48.72;31.98;;;6.30;99.90;;;;;;5077826;28;20115;-79
2022/01/23 01:39:33;;;;;;;54.67;34.45;;;6.40;99.90;;;;;;5059928;28;20036;-78
2022/01/23 01:41:59;;;;;;;50.75;32.85;;;6.40;99.90;;;;;;5072904;28;20408;-78
2022/01/23 01:44:25;;;;;;;47.85;31.02;;;6.30;99.90;;;;;;5053325;28;20052;-78
2022/01/23 01:46:51;;;;;;;44.67;33.05;;;6.40;99.90;;;;;;5073816;28;20040;-78
2022/01/23 01:49:27;;;;;;;49.25;33.10;;;6.40;99.90;;;;;;5073834;28;20025;-78
2022/01/23 01:51:55;;;;;;;45.80;31.95;;;6.40;99.90;;;;;;5066582;28;20029;-78
2022/01/23 01:54:24;;;;;;;51.13;32.08;;;6.50;99.90;;;;;;5062324;28;20386;-78
2022/01/23 01:56:52;;;;;;;46.10;33.05;;;6.40;99.90;;;;;;5069650;28;20401;-78
2022/01/23 02:02:55;;;;;;;47.70;32.00;;;6.40;99.90;;;;;;5010432;28;20033;-79
2022/01/23 02:10:47;;;;;;;45.67;32.53;;;6.40;99.90;;;;;;5068236;28;20371;-78
2022/01/23 02:13:16;;;;;;;47.80;32.17;;;6.40;99.90;;;;;;5052696;28;20037;-79
2022/01/23 02:24:08;;;;;;;45.80;31.10;;;6.40;99.90;;;;;;5086790;28;20047;-79
2022/01/23 02:52:11;;;;;;;42.88;31.58;;;6.40;99.90;;;;;;5072579;28;20043;-78
2022/01/23 02:54:53;;;;;;;49.10;32.85;;;6.40;99.90;;;;;;5073029;28;20066;-78
2022/01/23 02:57:37;;;;;;;46.28;31.55;;;6.40;99.90;;;;;;5063755;28;20025;-79
2022/01/23 03:00:12;;;;;;;45.70;32.17;;;6.40;99.90;;;;;;5061811;28;20052;-78
2022/01/23 03:02:44;;;;;;;53.55;33.97;;;6.40;99.90;;;;;;5064496;28;20024;-78
2022/01/23 03:05:13;;;;;;;49.78;32.95;;;6.40;99.90;;;;;;5052074;28;20128;-78
2022/01/23 03:10:25;;;;;;;50.47;34.72;;;6.40;99.90;;;;;;5067972;28;20075;-79
2022/01/23 03:26:18;;;;;;;53.13;35.33;;;6.30;99.90;;;;;;5084686;28;20044;-78
2022/01/23 03:31:42;;;;;;;56.55;36.17;;;6.30;99.90;;;;;;5074310;28;20036;-79
2022/01/23 03:34:08;;;;;;;50.42;33.75;;;6.40;99.90;;;;;;5066009;28;20068;-78
2022/01/23 03:36:35;;;;;;;51.83;34.30;;;6.40;99.90;;;;;;5090508;28;20024;-79
2022/01/23 03:39:02;;;;;;;47.83;34.05;;;6.40;99.90;;;;;;5064670;28;20036;-79
2022/01/23 03:41:27;;;;;;;56.00;36.60;;;6.30;99.90;;;;;;5065382;28;20035;-78
2022/01/23 03:43:53;;;;;;;51.33;34.70;;;6.40;99.90;;;;;;5051194;28;20472;-78
2022/01/23 03:51:49;;;;;;;52.03;35.80;;;6.40;99.90;;;;;;5072216;28;20043;-78
2022/01/23 03:54:15;;;;;;;55.50;35.20;;;6.40;99.90;;;;;;5059924;28;20028;-78
2022/01/23 03:56:53;;;;;;;47.30;34.22;;;6.40;99.90;;;;;;5078918;28;20437;-79
2022/01/23 03:59:18;;;;;;;61.45;38.88;;;6.30;99.90;;;;;;5055834;28;20029;-78
2022/01/23 04:01:44;;;;;;;60.17;39.20;;;6.40;99.90;;;;;;5072685;28;20074;-78
2022/01/23 04:04:25;;;;;;;52.08;34.50;;;6.40;99.90;;;;;;5073345;28;20075;-78
2022/01/23 04:06:51;;;;;;;59.35;40.15;;;6.30;99.90;;;;;;5052270;28;20037;-78
2022/01/23 04:09:16;;;;;;;53.55;35.28;;;6.40;99.90;;;;;;5061519;28;20051;-78
2022/01/23 04:11:43;;;;;;;57.45;37.58;;;6.40;99.90;;;;;;5067793;28;20039;-78
2022/01/23 04:14:11;;;;;;;62.70;40.17;;;6.40;99.90;;;;;;5061812;28;20384;-78
2022/01/23 04:17:06;;;;;;;64.07;38.80;;;6.40;99.90;;;;;;5081745;28;20415;-78
2022/01/23 04:19:42;;;;;;;61.07;39.47;;;6.40;99.90;;;;;;5065875;28;20028;-78
2022/01/23 04:33:30;;;;;;;58.88;39.38;;;6.40;99.90;;;;;;5070547;28;20540;-78
2022/01/23 05:00:21;;;;;;;67.32;41.33;;;6.30;99.90;;;;;;5064595;28;20093;-79
2022/01/23 05:05:39;;;;;;;69.63;43.97;;;6.40;99.90;;;;;;5052953;28;20417;-78
2022/01/23 05:08:06;;;;;;;75.47;44.85;;;6.30;99.90;;;;;;5077327;28;20044;-79
2022/01/23 05:10:33;;;;;;;71.95;44.08;;;6.40;99.90;;;;;;5051491;28;20029;-79
2022/01/23 05:12:59;;;;;;;66.43;41.38;;;6.30;99.90;;;;;;5068514;28;20028;-79
2022/01/23 05:15:25;;;;;;;77.55;43.00;;;6.40;99.90;;;;;;5058581;28;21804;-78
2022/01/23 05:17:51;;;;;;;74.97;44.67;;;6.30;99.90;;;;;;5048219;28;20035;-78
2022/01/23 05:20:19;;;;;;;73.13;43.70;;;6.30;99.90;;;;;;5057393;28;20025;-78
2022/01/23 05:22:59;;;;;;;70.03;41.22;;;6.30;99.90;;;;;;5077788;28;20129;-78
2022/01/23 05:25:28;;;;;;;76.40;42.97;;;6.30;99.90;;;;;;5051814;28;20468;-78
2022/01/23 05:27:54;;;;;;;74.82;45.08;;;6.30;99.90;;;;;;5054963;28;20052;-78
2022/01/23 05:30:21;;;;;;;68.13;42.13;;;6.30;99.90;;;;;;5056297;28;20109;-78
2022/01/23 05:32:47;;;;;;;79.95;46.58;;;6.30;99.90;;;;;;5080434;28;20056;-78
2022/01/23 05:35:14;;;;;;;82.78;45.40;;;6.30;99.90;;;;;;5052101;28;20025;-78
2022/01/23 05:37:40;;;;;;;71.85;42.90;;;6.30;99.90;;;;;;5059079;28;20046;-78
2022/01/23 05:40:10;;;;;;;79.22;45.17;;;6.20;99.90;;;;;;5068063;28;20089;-78
2022/01/23 05:42:36;;;;;;;74.50;45.38;;;6.30;99.90;;;;;;5058723;28;20025;-78
2022/01/23 05:45:02;;;;;;;79.85;46.33;;;6.30;99.90;;;;;;5053008;28;20480;-79
2022/01/23 05:47:28;;;;;;;81.85;46.70;;;6.30;99.90;;;;;;5043850;28;20037;-79
2022/01/23 05:49:54;;;;;;;76.43;44.05;;;6.30;99.90;;;;;;5048500;28;21083;-79
2022/01/23 05:52:19;;;;;;;75.90;44.08;;;6.30;99.90;;;;;;5070314;28;20033;-79
2022/01/23 05:54:45;;;;;;;84.72;47.60;;;6.30;99.90;;;;;;5084212;28;20033;-79
2022/01/23 05:57:11;;;;;;;91.22;48.33;;;6.30;99.90;;;;;;5053790;28;20032;-79
2022/01/23 05:59:37;;;;;;;86.60;45.28;;;6.30;99.90;;;;;;5050451;28;20498;-78
2022/01/23 06:02:03;;;;;;;77.03;43.95;;;6.30;99.90;;;;;;5065848;28;20131;-78
2022/01/23 06:04:28;;;;;;;80.90;44.88;;;6.30;99.90;;;;;;5067356;28;20032;-78
2022/01/23 06:06:56;;;;;;;79.80;46.42;;;6.30;99.90;;;;;;5059924;28;20082;-78
2022/01/23 06:09:22;;;;;;;76.47;45.42;;;6.30;99.90;;;;;;5077578;28;20123;-79
2022/01/23 06:11:48;;;;;;;87.10;47.70;;;6.30;99.90;;;;;;5070679;28;20036;-78
2022/01/23 06:14:14;;;;;;;85.22;46.38;;;6.30;99.90;;;;;;5063698;28;20131;-79
2022/01/23 06:16:40;;;;;;;97.05;48.75;;;6.30;99.90;;;;;;5074188;28;20529;-78
2022/01/23 06:19:06;;;;;;;93.30;49.92;;;6.30;99.90;;;;;;5088848;28;20067;-78
2022/01/23 06:21:32;;;;;;;81.40;44.78;;;6.30;99.90;;;;;;5067239;28;20060;-78
2022/01/23 06:24:10;;;;;;;90.70;48.40;;;6.30;99.90;;;;;;5073222;28;20478;-78
2022/01/23 06:26:48;;;;;;;90.68;49.67;;;6.40;99.90;;;;;;5061843;28;20074;-78
2022/01/23 06:29:16;;;;;;;91.57;50.20;;;6.30;99.90;;;;;;5084617;28;20040;-79
2022/01/23 06:31:46;;;;;;;87.57;49.15;;;6.30;99.90;;;;;;5079554;28;20020;-79
2022/01/23 06:34:12;;;;;;;96.00;48.78;;;6.30;99.90;;;;;;5090565;28;20028;-78
2022/01/23 06:36:38;;;;;;;95.07;50.22;;;6.30;99.90;;;;;;5077082;28;20016;-78
2022/01/23 06:39:06;;;;;;;78.75;45.67;;;6.30;99.90;;;;;;5063860;28;20028;-78
2022/01/23 06:41:32;;;;;;;101.15;50.85;;;6.20;99.90;;;;;;5068585;28;20017;-78
2022/01/23 06:43:57;;;;;;;87.65;50.35;;;6.30;99.90;;;;;;5086966;28;20448;-78
2022/01/23 06:46:24;;;;;;;90.22;49.17;;;6.30;99.90;;;;;;5064986;28;20028;-78
2022/01/23 06:48:50;;;;;;;99.07;51.78;;;6.30;99.90;;;;;;5043370;28;20116;-78
2022/01/23 06:51:17;;;;;;;91.32;50.47;;;6.30;99.90;;;;;;5058138;28;20583;-78
2022/01/23 06:53:42;;;;;;;91.75;49.65;;;6.30;99.90;;;;;;5072929;28;20039;-78
2022/01/23 06:56:08;;;;;;;89.45;49.33;;;6.40;99.90;;;;;;5069376;28;20020;-79
2022/01/23 06:58:34;;;;;;;82.68;45.65;;;6.30;99.90;;;;;;5054123;28;20056;-79
2022/01/23 07:00:59;;;;;;;95.00;48.22;;;6.30;99.90;;;;;;5070529;28;20385;-79
2022/01/23 07:03:25;;;;;;;90.70;48.63;;;6.30;99.90;;;;;;5063592;28;20031;-79
2022/01/23 07:05:51;;;;;;;90.47;48.25;;;6.30;99.90;;;;;;5063967;28;20742;-78
2022/01/23 07:08:18;;;;;;;102.00;52.22;;;6.30;99.90;;;;;;5079664;28;20036;-78
2022/01/23 07:10:44;;;;;;;93.68;49.97;;;6.30;99.90;;;;;;5071601;28;20480;-78
2022/01/23 07:13:09;;;;;;;84.78;47.05;;;6.20;99.90;;;;;;5072819;28;20086;-78
2022/01/23 07:15:35;;;;;;;102.07;49.60;;;6.20;99.90;;;;;;5061937;28;20512;-79
2022/01/23 07:18:01;;;;;;;91.13;48.67;;;6.20;99.90;;;;;;5065667;28;20028;-78
2022/01/23 07:20:26;;;;;;;99.88;50.10;;;6.30;99.90;;;;;;5084709;28;20408;-78
2022/01/23 07:22:52;;;;;;;83.35;46.17;;;6.30;99.90;;;;;;5076560;28;20047;-78
2022/01/23 07:25:18;;;;;;;91.90;49.88;;;6.30;99.90;;;;;;5061901;28;20029;-78
2022/01/23 07:27:53;;;;;;;88.57;47.22;;;6.30;99.90;;;;;;5084790;28;20097;-78
2022/01/23 07:32:48;;;;;;;94.05;46.33;;;6.20;99.90;;;;;;5071466;28;20041;-78
2022/01/23 07:35:14;;;;;;;87.85;45.97;;;6.10;99.90;;;;;;5053906;28;20081;-79
2022/01/23 07:37:40;;;;;;;90.50;46.50;;;6.10;99.90;;;;;;5070703;28;20358;-78
2022/01/23 07:40:06;;;;;;;94.72;50.45;;;6.10;99.90;;;;;;5076723;28;20040;-78
2022/01/23 07:42:32;;;;;;;91.28;47.75;;;6.20;99.90;;;;;;5054145;28;20060;-79
2022/01/23 07:44:57;;;;;;;93.95;50.13;;;6.20;99.90;;;;;;5053573;28;20118;-78
2022/01/23 07:47:23;;;;;;;97.95;50.03;;;6.20;99.90;;;;;;5077384;28;20024;-78
2022/01/23 07:49:50;;;;;;;94.13;48.25;;;6.20;99.90;;;;;;5082113;28;20020;-78
2022/01/23 07:52:19;;;;;;;99.85;52.00;;;6.20;99.90;;;;;;5075326;28;20229;-79
2022/01/23 07:54:46;;;;;;;98.25;50.75;;;6.20;99.90;;;;;;5062022;28;20040;-78
2022/01/23 07:57:12;;;;;;;90.78;48.13;;;6.20;99.90;;;;;;5080992;28;20423;-78
2022/01/23 07:59:37;;;;;;;87.97;47.83;;;6.20;99.90;;;;;;5081690;28;20487;-78
2022/01/23 08:02:03;;;;;;;95.07;50.33;;;6.20;99.90;;;;;;5082568;28;20036;-78
2022/01/23 08:04:29;;;;;;;92.90;50.20;;;6.20;99.90;;;;;;5055168;28;20029;-78
2022/01/23 08:07:20;;;;;;;93.60;49.45;;;6.30;99.90;;;;;;5089756;28;20034;-78
2022/01/23 08:09:46;;;;;;;84.53;46.55;;;6.30;99.90;;;;;;5073402;28;20028;-78
2022/01/23 08:12:11;;;;;;;84.50;48.53;;;6.30;99.90;;;;;;5081183;28;20511;-78
2022/01/23 08:14:37;;;;;;;100.30;50.22;;;6.30;99.90;;;;;;5060320;28;20125;-78
2022/01/23 08:17:03;;;;;;;91.47;48.47;;;6.30;99.90;;;;;;5075232;28;20036;-78
2022/01/23 08:19:29;;;;;;;87.65;46.70;;;6.30;99.90;;;;;;5071765;28;20032;-78
2022/01/23 08:21:54;;;;;;;90.93;47.70;;;6.30;99.90;;;;;;5078660;28;20029;-78
2022/01/23 08:24:21;;;;;;;88.45;47.35;;;6.30;99.90;;;;;;5066007;28;20087;-78
2022/01/23 08:26:47;;;;;;;85.40;48.08;;;6.30;99.90;;;;;;5083292;28;20068;-78
2022/01/23 08:29:12;;;;;;;102.03;49.65;;;6.30;99.90;;;;;;5057005;28;20040;-79
2022/01/23 08:31:38;;;;;;;98.20;48.78;;;6.30;99.90;;;;;;5070372;28;20463;-75
2022/01/23 08:34:04;;;;;;;91.65;48.60;;;6.40;99.90;;;;;;5065124;28;20037;-75
2022/01/23 08:36:31;;;;;;;87.47;45.70;;;6.40;99.90;;;;;;5077230;28;20469;-75
2022/01/23 08:38:59;;;;;;;81.22;45.42;;;6.40;99.90;;;;;;5078834;28;20491;-75
2022/01/23 08:43:51;;;;;;;99.03;49.80;;;6.50;99.90;;;;;;5067219;28;20059;-75
2022/01/23 08:46:17;;;;;;;88.65;48.45;;;6.50;99.90;;;;;;5066982;28;20141;-75
2022/01/23 08:48:43;;;;;;;96.20;51.72;;;6.50;99.90;;;;;;5062194;28;20031;-75
2022/01/23 08:51:10;;;;;;;92.47;49.35;;;6.50;99.90;;;;;;5049101;28;20429;-76
2022/01/23 08:53:36;;;;;;;90.03;49.00;;;6.50;99.90;;;;;;5067043;28;20024;-75
2022/01/23 08:56:02;;;;;;;100.03;48.80;;;6.50;99.90;;;;;;5067668;28;20020;-76
2022/01/23 08:58:28;;;;;;;84.55;46.85;;;6.50;99.90;;;;;;5070453;28;20058;-76
2022/01/23 09:00:54;;;;;;;85.63;48.40;;;6.60;99.90;;;;;;5072930;28;20059;-76
2022/01/23 09:03:19;;;;;;;93.43;48.70;;;6.60;99.90;;;;;;5082352;28;20123;-76
2022/01/23 09:05:45;;;;;;;81.78;45.67;;;6.60;99.90;;;;;;5078019;28;20450;-76
2022/01/23 09:08:10;;;;;;;80.20;44.63;;;6.60;99.90;;;;;;5076778;28;20481;-75
2022/01/23 09:10:42;;;;;;;80.95;45.67;;;6.60;99.90;;;;;;5068845;28;20064;-75
2022/01/23 09:13:15;;;;;;;87.35;48.92;;;6.60;99.90;;;;;;5069269;28;20171;-75
2022/01/23 09:15:41;;;;;;;83.28;45.55;;;6.70;99.90;;;;;;5062713;28;20013;-75
2022/01/23 09:18:07;;;;;;;76.78;43.65;;;6.70;99.90;;;;;;5081689;28;20382;-76
2022/01/23 09:20:33;;;;;;;87.50;47.85;;;6.70;99.90;;;;;;5070023;28;20408;-76
2022/01/23 09:22:59;;;;;;;73.40;43.47;;;6.70;99.90;;;;;;5065600;28;20032;-75
2022/01/23 09:25:25;;;;;;;85.57;49.25;;;6.70;99.90;;;;;;5068803;28;20059;-75
2022/01/23 09:27:51;;;;;;;76.15;44.35;;;6.70;99.90;;;;;;5054068;28;20094;-75
2022/01/23 09:30:19;;;;;;;76.05;43.92;;;6.70;99.90;;;;;;5074443;28;20047;-75
2022/01/23 09:32:46;;;;;;;83.43;46.08;;;6.70;99.90;;;;;;5071212;28;20037;-75
2022/01/23 09:35:12;;;;;;;76.53;43.70;;;6.70;99.90;;;;;;5069176;28;20645;-75
2022/01/23 09:37:37;;;;;;;86.40;45.92;;;6.80;99.90;;;;;;5070173;28;20484;-75
2022/01/23 09:40:05;;;;;;;83.85;48.20;;;6.80;99.90;;;;;;5068473;28;20041;-75
2022/01/23 09:42:43;;;;;;;78.78;46.10;;;6.80;99.90;;;;;;5078260;28;20362;-75
2022/01/23 09:45:13;;;;;;;80.20;44.22;;;6.80;99.90;;;;;;5067879;28;20024;-75
2022/01/23 09:47:39;;;;;;;78.25;44.88;;;6.80;99.90;;;;;;5080502;28;20030;-75
2022/01/23 09:50:08;;;;;;;80.00;45.88;;;6.80;99.90;;;;;;5068307;28;20032;-76
2022/01/23 09:52:35;;;;;;;75.00;44.65;;;6.80;99.90;;;;;;5069218;28;20036;-75
2022/01/23 09:55:09;;;;;;;78.50;45.22;;;6.90;99.90;;;;;;5076805;28;20029;-78
2022/01/23 09:57:40;;;;;;;78.63;46.35;;;6.90;99.90;;;;;;5076590;28;20071;-76
2022/01/23 10:00:11;;;;;;;72.68;43.90;;;6.90;99.90;;;;;;5085877;28;20097;-78
2022/01/23 10:02:37;;;;;;;77.35;43.70;;;6.90;99.90;;;;;;5084739;28;20419;-78
2022/01/23 10:05:05;;;;;;;80.88;44.72;;;6.90;99.90;;;;;;5059706;28;20039;-76
2022/01/23 10:07:35;;;;;;;74.80;43.65;;;6.90;99.90;;;;;;5080631;28;20023;-79
2022/01/23 10:10:11;;;;;;;81.63;46.80;;;6.90;99.90;;;;;;5075236;28;20021;-78
2022/01/23 10:12:42;;;;;;;77.85;43.70;;;6.90;99.90;;;;;;5074781;28;20155;-77
2022/01/23 10:15:09;;;;;;;82.25;45.97;;;7.00;99.90;;;;;;5082681;28;20033;-77
2022/01/23 10:17:36;;;;;;;82.38;47.03;;;6.90;99.90;;;;;;5054569;28;20569;-77
2022/01/23 10:20:05;;;;;;;81.93;46.47;;;7.00;99.90;;;;;;5079486;28;20115;-78
2022/01/23 10:22:32;;;;;;;81.10;47.10;;;7.00;99.90;;;;;;5084422;28;20050;-78
2022/01/23 10:25:12;;;;;;;75.88;44.58;;;7.00;99.90;;;;;;5083216;28;20029;-78
2022/01/23 10:28:05;;;;;;;80.10;45.13;;;7.00;99.90;;;;;;5070778;28;20098;-78
2022/01/23 10:30:41;;;;;;;84.10;47.20;;;7.00;99.90;;;;;;5086553;28;20381;-78
2022/01/23 10:33:10;;;;;;;82.72;46.22;;;7.00;99.90;;;;;;5077392;28;20033;-78
2022/01/23 10:35:57;;;;;;;77.95;44.80;;;7.00;99.90;;;;;;5072091;28;20393;-78
2022/01/23 10:38:27;;;;;;;76.75;44.13;;;7.00;99.90;;;;;;5077085;28;20066;-78
2022/01/23 10:41:05;;;;;;;;;;;7.00;99.90;;;;;;5072164;28;20046;-79
2022/01/23 10:49:00;;;;;;;85.25;46.35;;;7.00;99.90;;;;;;5072450;28;20043;-79
2022/01/23 10:51:35;;;;;;;84.07;46.25;;;7.00;99.90;;;;;;5050437;28;20032;-79
2022/01/23 10:54:15;;;;;;;83.57;47.10;;;7.10;99.90;;;;;;5050696;28;20032;-78
2022/01/23 10:57:00;;;;;;;80.72;45.85;;;7.10;99.90;;;;;;5069614;28;20086;-75
2022/01/23 10:59:38;;;;;;;83.38;44.78;;;7.10;99.90;;;;;;5085163;28;20027;-75
2022/01/23 11:02:09;;;;;;;80.68;45.00;;;7.10;99.90;;;;;;5056694;28;20444;-75
2022/01/23 11:04:50;;;;;;;80.78;45.92;;;7.10;99.90;;;;;;5071597;28;20089;-75
2022/01/23 11:07:16;;;;;;;79.70;45.75;;;7.10;99.90;;;;;;5077763;28;20025;-75
2022/01/23 11:09:41;;;;;;;79.07;44.83;;;7.20;99.90;;;;;;5089343;28;20031;-74
2022/01/23 11:12:15;;;;;;;76.80;43.30;;;7.20;99.90;;;;;;5077271;28;20150;-74
2022/01/23 11:17:26;;;;;;;81.22;44.88;;;7.20;99.90;;;;;;5077657;28;20039;-79
2022/01/23 11:20:02;;;;;;;79.82;45.22;;;7.20;99.90;;;;;;5057169;28;20032;-79
2022/01/23 11:22:30;;;;;;;74.07;44.35;;;7.20;99.90;;;;;;5082683;28;20032;-79
2022/01/23 11:25:10;;;;;;;74.53;43.75;;;7.20;99.90;;;;;;5070860;28;20032;-79
2022/01/23 11:27:39;;;;;;;75.50;43.10;;;7.20;99.90;;;;;;5082828;28;20036;-79
2022/01/23 11:30:05;;;;;;;83.45;44.95;;;7.20;99.90;;;;;;5087647;28;20035;-79
2022/01/23 11:32:37;;;;;;;77.97;44.15;;;7.20;99.90;;;;;;5070421;28;20450;-78
2022/01/23 11:35:15;;;;;;;81.15;44.88;;;7.20;99.90;;;;;;5068891;28;20377;-78
2022/01/23 11:37:49;;;;;;;76.90;45.63;;;7.20;99.90;;;;;;5088746;28;20039;-78
2022/01/23 11:53:56;;;;;;;76.78;43.80;;;7.30;99.90;;;;;;5085840;28;20032;-78
2022/01/23 11:59:23;;;;;;;67.95;40.88;;;7.30;99.90;;;;;;5071771;28;20077;-79
2022/01/23 12:02:12;;;;;;;69.15;41.20;;;7.30;99.90;;;;;;5073983;28;20035;-79
2022/01/23 12:04:40;;;;;;;71.80;39.83;;;7.40;99.90;;;;;;5079080;28;20035;-78
2022/01/23 12:07:15;;;;;;;68.05;40.38;;;7.30;99.90;;;;;;5053947;28;20028;-79
2022/01/23 12:10:02;;;;;;;70.90;42.35;;;7.40;99.90;;;;;;5071927;28;20035;-79
2022/01/23 12:12:40;;;;;;;81.00;42.80;;;7.30;99.90;;;;;;5082729;28;20032;-79
2022/01/23 12:18:18;;;;;;;70.68;39.80;;;7.40;99.90;;;;;;5072491;28;20067;-76
2022/01/23 12:20:45;;;;;;;65.68;40.28;;;7.40;99.90;;;;;;5077422;28;20522;-77
2022/01/23 12:23:11;;;;;;;76.60;42.42;;;7.40;99.90;;;;;;5079088;28;20102;-78
2022/01/23 12:25:49;;;;;;;72.22;42.47;;;7.50;99.90;;;;;;5058610;28;20476;-79
2022/01/23 12:28:28;;;;;;;68.97;40.75;;;7.50;99.90;;;;;;5074577;28;20193;-79
2022/01/23 12:31:23;;;;;;;69.90;41.17;;;7.50;99.90;;;;;;5057674;28;20103;-77
2022/01/23 12:33:58;;;;;;;71.68;39.17;;;7.50;99.90;;;;;;5072659;28;20363;-79
2022/01/23 12:36:37;;;;;;;72.85;41.58;;;7.50;99.90;;;;;;5078418;28;20075;-77
2022/01/23 12:39:09;;;;;;;75.63;42.88;;;7.50;99.90;;;;;;5051174;28;20363;-77
2022/01/23 12:41:40;;;;;;;71.75;41.47;;;7.60;99.90;;;;;;5080006;28;20024;-78
2022/01/23 12:44:26;;;;;;;66.78;39.30;;;7.60;99.90;;;;;;5076211;28;20034;-77
2022/01/23 12:47:03;;;;;;;71.75;38.92;;;7.70;99.90;;;;;;5070323;28;20036;-77
2022/01/23 12:49:34;;;;;;;63.45;39.58;;;7.60;99.90;;;;;;5083691;28;20108;-79
2022/01/23 12:52:05;;;;;;;70.85;41.80;;;7.60;99.90;;;;;;5071671;28;20035;-78
2022/01/23 12:54:33;;;;;;;69.18;40.58;;;7.50;99.90;;;;;;5087325;28;20025;-77
2022/01/23 12:57:13;;;;;;;73.53;41.85;;;7.60;99.90;;;;;;5071771;28;20389;-78
2022/01/23 12:59:39;;;;;;;74.70;39.15;;;7.60;99.90;;;;;;5081965;28;20030;-77
2022/01/23 13:02:16;;;;;;;72.55;39.83;;;7.60;99.90;;;;;;5076041;28;20025;-77
2022/01/23 13:04:45;;;;;;;74.85;42.10;;;7.60;99.90;;;;;;5077144;28;20028;-78
2022/01/23 13:12:52;;;;;;;71.18;42.53;;;7.60;99.90;;;;;;5086768;28;20064;-78
2022/01/23 13:34:45;;;;;;;72.38;42.70;;;7.70;99.90;;;;;;5075303;28;20056;-80
2022/01/23 13:37:14;;;;;;;68.57;40.38;;;7.70;99.90;;;;;;5056860;28;20029;-77
2022/01/23 13:39:54;;;;;;;;;;;7.70;99.90;;;;;;5058844;28;20028;-78
2022/01/23 13:59:56;;;;;;;77.90;41.92;;;7.70;99.90;;;;;;5080044;28;20031;-78
2022/01/23 14:02:25;;;;;;;71.18;42.30;;;7.70;99.90;;;;;;5072883;28;20024;-78
2022/01/23 14:04:53;;;;;;;68.53;41.45;;;7.80;99.90;;;;;;5077454;28;20028;-78
2022/01/23 14:07:22;;;;;;;73.15;41.78;;;7.80;99.90;;;;;;5076994;28;20118;-78
2022/01/23 14:09:48;;;;;;;62.70;39.45;;;7.80;99.90;;;;;;5090792;28;20546;-78
2022/01/23 14:12:17;;;;;;;76.32;40.38;;;7.80;99.90;;;;;;5085184;28;20442;-78
2022/01/23 14:14:54;;;;;;;;;;;7.80;99.90;;;;;;5089992;28;20286;-78
2022/01/23 14:17:23;;;;;;;69.10;37.78;;;7.80;99.90;;;;;;5082789;28;19915;-77
2022/01/23 14:20:19;;;;;;;70.18;39.90;;;7.80;99.90;;;;;;5087665;28;20024;-78
2022/01/23 14:22:48;;;;;;;71.65;40.10;;;7.80;99.90;;;;;;5070524;28;20043;-79
2022/01/23 14:25:17;;;;;;;64.05;38.92;;;7.80;99.90;;;;;;5082508;28;20025;-79
2022/01/23 14:28:00;;;;;;;65.45;38.13;;;7.80;99.90;;;;;;5091200;28;20035;-79
2022/01/23 14:30:28;;;;;;;70.03;41.08;;;7.80;99.90;;;;;;5097713;28;20025;-79
2022/01/23 14:32:56;;;;;;;75.05;41.92;;;7.80;99.90;;;;;;5081356;28;20444;-78
2022/01/23 14:35:29;;;;;;;67.68;38.40;;;7.70;99.90;;;;;;5064258;28;20025;-79
2022/01/23 14:38:12;;;;;;;83.75;42.92;;;7.80;99.90;;;;;;5060900;28;20039;-79
2022/01/23 14:40:50;;;;;;;74.32;41.78;;;7.80;99.90;;;;;;5078951;28;20055;-78
2022/01/23 14:43:15;;;;;;;73.93;41.47;;;7.80;99.90;;;;;;5077978;28;20384;-78
2022/01/23 14:45:44;;;;;;;79.88;42.25;;;7.80;99.90;;;;;;5075628;28;20036;-79
2022/01/23 14:48:12;;;;;;;75.70;41.03;;;7.80;99.90;;;;;;5071732;28;20051;-79
2022/01/23 14:50:42;;;;;;;69.93;41.22;;;7.80;99.90;;;;;;5062871;28;20062;-77
2022/01/23 14:53:20;;;;;;;68.50;41.50;;;7.80;99.90;;;;;;5090392;28;20419;-78
2022/01/23 14:55:59;;;;;;;74.03;41.10;;;7.80;99.90;;;;;;5086526;28;20384;-78
2022/01/23 14:58:24;;;;;;;70.45;40.17;;;7.70;99.90;;;;;;5077266;28;20032;-77
2022/01/23 15:00:53;;;;;;;71.43;41.35;;;7.80;99.90;;;;;;5056322;28;20043;-81
2022/01/23 15:03:20;;;;;;;70.65;41.25;;;7.70;99.90;;;;;;5069793;28;20031;-82
2022/01/23 15:05:46;;;;;;;71.78;41.55;;;7.80;99.90;;;;;;5091749;28;20139;-82
2022/01/23 15:08:14;;;;;;;73.97;43.42;;;7.70;99.90;;;;;;5089984;28;20028;-82
2022/01/23 15:10:44;;;;;;;71.80;42.30;;;7.70;99.90;;;;;;5090252;28;20372;-82
2022/01/23 15:13:11;;;;;;;69.53;40.05;;;7.80;99.90;;;;;;5090150;28;20036;-82
2022/01/23 15:15:37;;;;;;;68.88;40.67;;;7.70;99.90;;;;;;5090105;28;20032;-81
2022/01/23 15:18:03;;;;;;;68.88;40.75;;;7.70;99.90;;;;;;5083508;28;20028;-82
2022/01/23 15:20:31;;;;;;;71.32;39.28;;;7.70;99.90;;;;;;5069605;28;20020;-82
2022/01/23 15:22:57;;;;;;;70.78;39.50;;;7.70;99.90;;;;;;5052937;28;20057;-82
2022/01/23 15:25:24;;;;;;;60.97;36.50;;;7.70;99.90;;;;;;5070915;28;20151;-82
2022/01/23 15:27:50;;;;;;;61.95;37.22;;;7.70;99.90;;;;;;5053191;28;20052;-82
2022/01/23 15:30:16;;;;;;;69.47;39.53;;;7.60;99.90;;;;;;5070967;28;20124;-82
2022/01/23 15:32:46;;;;;;;63.28;36.85;;;7.60;99.90;;;;;;5082708;28;20098;-82
2022/01/23 15:35:13;;;;;;;68.05;40.70;;;7.60;99.90;;;;;;5074388;28;20033;-82
2022/01/23 15:37:40;;;;;;;67.30;39.35;;;7.60;99.90;;;;;;5074616;28;20120;-82
2022/01/23 15:40:07;;;;;;;67.75;38.60;;;7.60;99.90;;;;;;5089948;28;20499;-82
2022/01/23 15:42:33;;;;;;;62.85;37.47;;;7.60;99.90;;;;;;5082943;28;20073;-82
2022/01/23 15:44:59;;;;;;;62.92;37.58;;;7.60;99.90;;;;;;5069582;28;20032;-82
2022/01/23 15:47:24;;;;;;;63.78;38.03;;;7.50;99.90;;;;;;5052417;28;20037;-82
2022/01/23 15:49:50;;;;;;;60.88;36.90;;;7.50;99.90;;;;;;5067819;28;20503;-82
2022/01/23 15:52:16;;;;;;;60.47;35.95;;;7.50;99.90;;;;;;5055619;28;20122;-82
2022/01/23 15:54:42;;;;;;;64.43;37.38;;;7.50;99.90;;;;;;5089492;28;20024;-82
2022/01/23 15:57:08;;;;;;;70.00;40.45;;;7.50;99.90;;;;;;5089518;28;20108;-82
2022/01/23 15:59:35;;;;;;;63.03;37.38;;;7.40;99.90;;;;;;5056254;28;20033;-81
2022/01/23 16:02:04;;;;;;;67.32;39.70;;;7.40;99.90;;;;;;5070255;28;20033;-82
2022/01/23 16:04:34;;;;;;;65.20;37.33;;;7.40;99.90;;;;;;5052405;28;20064;-82
2022/01/23 16:06:59;;;;;;;67.32;39.63;;;7.40;99.90;;;;;;5070318;28;20033;-82
2022/01/23 16:09:25;;;;;;;66.72;39.47;;;7.30;99.90;;;;;;5052215;28;20039;-82
2022/01/23 16:11:51;;;;;;;65.65;38.10;;;7.40;99.90;;;;;;5052177;28;20397;-82